createdAt,value
2019-04-23T00:02:58.957Z,7.67
2019-04-23T00:06:15.213Z,7.77
2019-04-23T00:09:20.388Z,6.83
2019-04-23T00:12:30.024Z,7.37
2019-04-23T00:15:53.332Z,8.23
2019-04-23T00:18:46.130Z,7.17
2019-04-23T00:22:23.607Z,7.23
2019-04-23T00:25:49.846Z,7.97
2019-04-23T00:28:51.994Z,7.00
2019-04-23T00:31:51.227Z,7.40
2019-04-23T00:38:09.091Z,7.27
2019-04-23T00:41:11.366Z,7.37
2019-04-23T00:47:28.269Z,6.57
2019-04-23T00:53:32.882Z,6.60
2019-04-23T00:56:47.647Z,7.90
2019-04-23T01:00:03.436Z,7.20
2019-04-23T01:03:00.716Z,7.67
2019-04-23T01:06:09.729Z,7.40
2019-04-23T01:09:08.944Z,7.13
2019-04-23T01:12:25.585Z,6.80
2019-04-23T01:18:46.813Z,6.80
2019-04-23T01:21:28.562Z,7.53
2019-04-23T01:24:48.785Z,6.90
2019-04-23T01:28:28.405Z,6.60
2019-04-23T01:31:49.323Z,6.23
2019-04-23T01:34:40.759Z,6.73
2019-04-23T01:37:41.264Z,6.47
2019-04-23T01:40:47.534Z,7.60
2019-04-23T01:43:55.220Z,7.87
2019-04-23T01:47:03.591Z,7.07
2019-04-23T01:50:16.860Z,6.40
2019-04-23T01:53:19.081Z,6.57
2019-04-23T01:56:24.277Z,5.93
2019-04-23T01:59:31.335Z,5.97
2019-04-23T02:02:44.242Z,6.80
2019-04-23T02:08:52.401Z,7.33
2019-04-23T02:11:57.934Z,6.43
2019-04-23T02:15:03.641Z,6.40
2019-04-23T02:18:14.919Z,6.40
2019-04-23T02:21:26.072Z,6.00
2019-04-23T02:24:34.049Z,6.47
2019-04-23T02:27:36.119Z,5.87
2019-04-23T02:31:03.801Z,6.60
2019-04-23T02:34:01.227Z,6.67
2019-04-23T02:37:00.466Z,6.20
2019-04-23T02:40:26.713Z,6.77
2019-04-23T02:46:09.885Z,6.17
2019-04-23T02:49:40.441Z,6.40
2019-04-23T02:52:49.843Z,5.50
2019-04-23T02:58:54.891Z,6.17
2019-04-23T03:02:12.034Z,4.93
2019-04-23T03:08:08.370Z,6.50
2019-04-23T03:17:37.002Z,6.30
2019-04-23T03:24:25.157Z,5.97
2019-04-23T03:30:37.194Z,6.03
2019-04-23T03:37:04.059Z,5.40
2019-04-23T03:43:01.178Z,7.07
2019-04-23T03:46:12.530Z,6.17
2019-04-23T03:48:56.720Z,6.40
2019-04-23T03:52:24.944Z,5.80
2019-04-23T03:55:23.749Z,6.90
2019-04-23T03:58:28.313Z,6.30
2019-04-23T04:01:29.226Z,6.00
2019-04-23T04:07:47.295Z,5.87
2019-04-23T04:10:58.760Z,6.20
2019-04-23T04:14:01.131Z,6.33
2019-04-23T04:26:40.972Z,6.87
2019-04-23T04:29:39.687Z,6.77
2019-04-23T04:32:43.231Z,5.97
2019-04-23T04:35:38.274Z,6.43
2019-04-23T04:38:57.188Z,6.40
2019-04-23T04:41:58.708Z,6.87
2019-04-23T04:45:13.661Z,7.53
2019-04-23T04:48:19.959Z,6.70
2019-04-23T04:54:21.378Z,7.27
2019-04-23T04:57:36.909Z,6.63
2019-04-23T05:03:55.059Z,6.47
2019-04-23T05:07:04.242Z,7.30
2019-04-23T05:10:12.758Z,6.90
2019-04-23T05:13:22.682Z,6.20
2019-04-23T05:22:31.218Z,7.67
2019-04-23T05:25:31.394Z,7.27
2019-04-23T05:28:38.812Z,7.17
2019-04-23T05:31:45.262Z,7.83
2019-04-23T05:34:54.080Z,6.87
2019-04-23T05:38:07.207Z,7.60
2019-04-23T05:41:11.613Z,7.60
2019-04-23T05:44:15.727Z,7.63
2019-04-23T05:47:25.473Z,7.50
2019-04-23T05:50:34.814Z,8.20
2019-04-23T05:53:33.849Z,7.17
2019-04-23T05:56:53.499Z,8.07
2019-04-23T06:03:02.607Z,8.97
2019-04-23T06:06:03.091Z,8.50
2019-04-23T06:09:09.143Z,8.87
2019-04-23T06:12:10.075Z,8.23
2019-04-23T06:15:20.793Z,8.70
2019-04-23T06:18:33.197Z,8.13
2019-04-23T06:27:51.613Z,8.43
2019-04-23T06:30:57.284Z,8.60
2019-04-23T06:34:02.721Z,8.70
2019-04-23T06:40:13.846Z,8.40
2019-04-23T06:43:30.200Z,9.70
2019-04-23T06:46:39.523Z,8.80
2019-04-23T06:52:38.759Z,8.47
2019-04-23T06:55:57.508Z,8.30
2019-04-23T06:59:00.211Z,9.30
2019-04-23T07:08:26.542Z,8.37
2019-04-23T07:14:35.908Z,7.60
2019-04-23T07:17:34.872Z,6.83
2019-04-23T07:20:51.195Z,7.53
2019-04-23T07:24:00.697Z,7.00
2019-04-23T07:26:55.415Z,6.77
2019-04-23T07:30:11.518Z,8.07
2019-04-23T07:33:12.015Z,7.17
2019-04-23T07:36:22.823Z,7.37
2019-04-23T07:39:45.581Z,7.37
2019-04-23T07:43:06.446Z,7.17
2019-04-23T07:46:25.897Z,7.10
2019-04-23T07:49:25.011Z,6.80
2019-04-23T07:52:34.070Z,6.80
2019-04-23T07:55:56.444Z,7.43
2019-04-23T07:58:39.656Z,6.63
2019-04-23T08:01:48.900Z,6.80
2019-04-23T08:08:01.666Z,6.50
2019-04-23T08:11:35.883Z,6.60
2019-04-23T08:14:13.602Z,7.17
2019-04-23T08:17:24.378Z,7.40
2019-04-23T08:20:38.051Z,7.73
2019-04-23T08:27:13.074Z,6.80
2019-04-23T08:30:17.385Z,6.83
2019-04-23T08:33:24.798Z,6.73
2019-04-23T08:36:34.255Z,7.70
2019-04-23T08:42:55.964Z,6.93
2019-04-23T08:46:05.836Z,6.33
2019-04-23T08:49:22.644Z,6.77
2019-04-23T08:52:18.241Z,6.40
2019-04-23T08:55:34.023Z,6.20
2019-04-23T08:58:34.200Z,7.37
2019-04-23T09:01:57.610Z,6.33
2019-04-23T09:08:00.031Z,8.00
2019-04-23T09:11:04.871Z,7.80
2019-04-23T09:13:59.566Z,7.10
2019-04-23T09:23:34.968Z,7.40
2019-04-23T09:26:32.746Z,7.80
2019-04-23T09:29:52.927Z,7.30
2019-04-23T09:32:54.471Z,6.60
2019-04-23T09:36:27.493Z,8.27
2019-04-23T09:39:34.620Z,6.90
2019-04-23T09:46:17.576Z,7.23
2019-04-23T09:52:32.593Z,7.13
2019-04-23T09:58:49.617Z,6.60
2019-04-23T10:01:42.493Z,7.20
2019-04-23T10:04:46.322Z,6.93
2019-04-23T10:07:47.059Z,7.70
2019-04-23T10:10:42.488Z,7.07
2019-04-23T10:13:48.355Z,7.57
2019-04-23T10:16:53.625Z,7.30
2019-04-23T10:19:58.600Z,7.43
2019-04-23T10:23:04.193Z,7.53
2019-04-23T10:26:10.108Z,7.10
2019-04-23T10:29:20.053Z,7.37
2019-04-23T10:32:25.562Z,8.00
2019-04-23T10:35:41.066Z,7.67
2019-04-23T10:38:41.627Z,8.20
2019-04-23T10:41:46.367Z,7.37
2019-04-23T10:45:42.550Z,8.10
2019-04-23T10:49:31.795Z,7.33
2019-04-23T10:55:41.063Z,7.33
2019-04-23T11:01:55.353Z,7.80
2019-04-23T11:07:54.876Z,7.03
2019-04-23T11:11:16.594Z,7.60
2019-04-23T11:14:19.522Z,7.97
2019-04-23T11:23:34.571Z,8.33
2019-04-23T11:26:44.362Z,7.60
2019-04-23T11:29:48.598Z,7.73
2019-04-23T11:33:05.130Z,7.07
2019-04-23T11:36:35.832Z,7.33
2019-04-23T11:39:23.333Z,6.20
2019-04-23T11:45:36.857Z,7.20
2019-04-23T12:01:44.776Z,6.63
2019-04-23T12:04:59.122Z,7.60
2019-04-23T12:08:09.685Z,7.57
2019-04-23T12:14:46.715Z,7.97
2019-04-23T12:17:51.937Z,8.13
2019-04-23T12:21:12.603Z,8.17
2019-04-23T12:24:36.647Z,7.60
2019-04-23T12:27:28.323Z,7.00
2019-04-23T12:30:33.625Z,7.57
2019-04-23T12:34:00.754Z,7.70
2019-04-23T12:36:47.888Z,7.50
2019-04-23T12:40:03.310Z,6.93
2019-04-23T12:43:05.640Z,7.37
2019-04-23T12:46:02.206Z,6.50
2019-04-23T12:49:34.711Z,7.67
2019-04-23T12:52:26.779Z,6.20
2019-04-23T12:58:27.868Z,6.13
2019-04-23T13:01:49.244Z,6.47
2019-04-23T13:08:23.351Z,6.90
2019-04-23T13:11:25.816Z,6.80
2019-04-23T13:20:23.551Z,5.70
2019-04-23T13:23:29.989Z,7.07
2019-04-23T13:26:35.886Z,6.80
2019-04-23T13:29:50.070Z,6.47
2019-04-23T13:32:56.360Z,6.77
2019-04-23T13:39:01.943Z,6.00
2019-04-23T13:42:22.756Z,6.33
2019-04-23T13:45:36.358Z,6.47
2019-04-23T13:48:34.507Z,6.20
2019-04-23T13:51:32.591Z,5.87
2019-04-23T13:54:59.598Z,6.03
2019-04-23T13:58:02.302Z,5.33
2019-04-23T14:01:18.345Z,5.80
2019-04-23T14:04:11.722Z,6.13
2019-04-23T14:07:23.227Z,5.23
2019-04-23T14:10:29.851Z,5.50
2019-04-23T14:16:39.729Z,6.23
2019-04-23T14:19:45.658Z,6.70
2019-04-23T14:26:10.166Z,5.77
2019-04-23T14:29:07.255Z,5.50
2019-04-23T14:32:15.633Z,6.10
2019-04-23T14:35:32.492Z,5.63
2019-04-23T14:41:37.173Z,6.17
2019-04-23T14:44:40.528Z,6.33
2019-04-23T14:47:59.098Z,5.80
2019-04-23T14:51:02.536Z,6.40
2019-04-23T14:54:06.324Z,5.70
2019-04-23T14:57:23.140Z,5.43
2019-04-23T15:00:31.388Z,5.53
2019-04-23T15:03:35.214Z,6.50
2019-04-23T15:06:43.747Z,7.77
2019-04-23T15:12:51.369Z,7.30
2019-04-23T15:16:11.380Z,6.43
2019-04-23T15:19:23.712Z,7.37
2019-04-23T15:22:21.753Z,7.23
2019-04-23T15:25:36.962Z,7.50
2019-04-23T15:28:08.953Z,7.17
2019-04-23T15:34:47.249Z,7.33
2019-04-23T15:38:30.967Z,7.30
2019-04-23T15:41:00.191Z,5.60
2019-04-23T15:44:10.444Z,6.03
2019-04-23T15:47:19.176Z,6.30
2019-04-23T15:50:22.959Z,7.20
2019-04-23T15:53:19.681Z,5.80
2019-04-23T15:56:40.916Z,5.80
2019-04-23T15:59:44.624Z,6.00
2019-04-23T16:02:19.221Z,6.87
2019-04-23T16:05:25.721Z,6.50
2019-04-23T16:09:04.849Z,6.47
2019-04-23T16:11:59.059Z,6.43
2019-04-23T16:18:52.266Z,5.10
2019-04-23T16:28:12.878Z,5.57
2019-04-23T16:31:20.526Z,5.33
2019-04-23T16:37:50.463Z,6.43
2019-04-23T16:40:41.500Z,6.90
2019-04-23T16:43:59.859Z,6.60
2019-04-23T16:47:04.149Z,5.87
2019-04-23T16:50:10.571Z,5.87
2019-04-23T16:59:35.521Z,6.30
2019-04-23T17:02:40.861Z,6.30
2019-04-23T17:09:07.020Z,5.93
2019-04-23T17:12:05.898Z,6.60
2019-04-23T17:15:07.128Z,6.37
2019-04-23T17:18:11.939Z,5.70
2019-04-23T17:21:14.749Z,5.73
2019-04-23T17:27:31.138Z,6.33
2019-04-23T17:30:41.142Z,6.20
2019-04-23T17:33:51.940Z,5.97
2019-04-23T17:37:21.751Z,6.10
2019-04-23T17:40:26.529Z,7.10
2019-04-23T17:43:39.888Z,6.50
2019-04-23T17:46:50.700Z,6.97
2019-04-23T17:50:10.740Z,6.60
2019-04-23T17:53:03.036Z,5.83
2019-04-23T18:05:29.144Z,6.33
2019-04-23T18:08:37.712Z,5.93
2019-04-23T18:12:10.137Z,5.73
2019-04-23T18:14:47.162Z,5.40
2019-04-23T18:18:01.907Z,6.03
2019-04-23T18:21:39.749Z,6.27
2019-04-23T18:24:50.532Z,6.07
2019-04-23T18:27:54.242Z,6.10
2019-04-23T18:31:33.288Z,5.17
2019-04-23T18:34:59.653Z,5.30
2019-04-23T18:37:41.467Z,5.70
2019-04-23T18:41:02.463Z,6.23
2019-04-23T18:44:05.836Z,5.30
2019-04-23T18:47:09.002Z,6.00
2019-04-23T18:50:22.291Z,5.10
2019-04-23T18:53:32.328Z,5.60
2019-04-23T18:56:48.573Z,5.87
2019-04-23T18:59:47.385Z,5.53
2019-04-23T19:02:56.607Z,5.13
2019-04-23T19:06:21.877Z,6.73
2019-04-23T19:10:05.113Z,5.87
2019-04-23T19:13:21.796Z,5.70
2019-04-23T19:16:25.302Z,5.30
2019-04-23T19:19:38.241Z,5.83
2019-04-23T19:25:43.788Z,5.23
2019-04-23T19:29:36.352Z,5.70
2019-04-23T19:31:56.993Z,5.00
2019-04-23T19:35:16.169Z,5.70
2019-04-23T19:38:21.509Z,5.40
2019-04-23T19:41:18.878Z,5.80
2019-04-23T19:44:34.551Z,4.60
2019-04-23T19:47:47.583Z,5.97
2019-04-23T19:50:49.035Z,4.93
2019-04-23T19:57:00.070Z,4.70
2019-04-23T20:03:26.684Z,4.80
2019-04-23T20:06:51.043Z,4.63
2019-04-23T20:15:50.488Z,5.00
2019-04-23T20:21:59.661Z,5.40
2019-04-23T20:28:24.635Z,6.30
2019-04-23T20:31:42.274Z,4.70
2019-04-23T20:33:18.868Z,5.03
2019-04-23T20:34:51.838Z,4.43
2019-04-23T20:38:13.633Z,4.40
2019-04-23T20:44:01.442Z,4.40
2019-04-23T20:49:58.280Z,4.20
2019-04-23T20:53:17.913Z,4.87
2019-04-23T20:56:25.413Z,4.50
2019-04-23T20:59:33.751Z,4.67
2019-04-23T21:03:18.463Z,4.27
2019-04-23T21:06:07.122Z,4.20
2019-04-23T21:12:27.749Z,4.33
2019-04-23T21:18:37.370Z,3.83
2019-04-23T21:21:44.182Z,4.00
2019-04-23T21:24:49.276Z,3.80
2019-04-23T21:28:08.711Z,4.30
2019-04-23T21:34:30.235Z,3.70
2019-04-23T21:37:43.124Z,4.37
2019-04-23T21:47:08.955Z,4.50
2019-04-23T21:50:25.297Z,4.17
2019-04-23T21:53:32.883Z,4.97
2019-04-23T21:56:37.232Z,4.00
2019-04-23T21:59:44.685Z,4.37
2019-04-23T22:05:58.279Z,4.17
2019-04-23T22:09:10.999Z,4.07
2019-04-23T22:12:08.987Z,4.40
2019-04-23T22:15:13.028Z,4.17
2019-04-23T22:18:21.959Z,3.13
2019-04-23T22:24:32.209Z,3.50
2019-04-23T22:27:48.364Z,3.37
2019-04-23T22:30:54.757Z,4.20
2019-04-23T22:34:02.663Z,3.67
2019-04-23T22:40:06.010Z,5.80
2019-04-23T22:43:20.315Z,5.80
2019-04-23T22:46:39.813Z,5.43
2019-04-23T22:49:53.520Z,6.20
2019-04-23T22:56:01.924Z,6.83
2019-04-23T22:59:11.964Z,6.57
2019-04-23T23:02:22.978Z,7.20
2019-04-23T23:05:39.201Z,6.53
2019-04-23T23:08:40.846Z,6.80
2019-04-23T23:11:49.640Z,5.97
2019-04-23T23:14:54.783Z,6.30
2019-04-23T23:24:07.465Z,6.37
2019-04-23T23:27:29.989Z,5.67
2019-04-23T23:33:36.527Z,6.33
2019-04-23T23:36:38.987Z,6.23
2019-04-23T23:39:53.516Z,6.57
2019-04-23T23:43:05.372Z,5.73
2019-04-23T23:46:06.634Z,5.70
2019-04-23T23:49:08.223Z,5.60
2019-04-23T23:52:02.805Z,5.70
2019-04-23T23:55:24.479Z,6.20
2019-04-23T23:58:45.844Z,6.37
